sensor_id;sensor_type;location;lat;lon;timestamp;temperature;humidity
66094;DHT22;52876;49.394;10.892;2022-07-29T00:08:33;20.20;87.50
66094;DHT22;52876;49.394;10.892;2022-07-29T00:20:50;20.40;88.80
66094;DHT22;52876;49.394;10.892;2022-07-29T00:25:48;20.30;88.10
66094;DHT22;52876;49.394;10.892;2022-07-29T00:38:15;20.00;90.00
66094;DHT22;52876;49.394;10.892;2022-07-29T00:40:44;20.30;89.80
66094;DHT22;52876;49.394;10.892;2022-07-29T00:43:21;20.10;90.00
66094;DHT22;52876;49.394;10.892;2022-07-29T01:00:45;20.00;91.20
66094;DHT22;52876;49.394;10.892;2022-07-29T01:05:45;19.90;91.80
66094;DHT22;52876;49.394;10.892;2022-07-29T01:08:14;19.90;91.90
66094;DHT22;52876;49.394;10.892;2022-07-29T01:10:45;19.90;92.30
66094;DHT22;52876;49.394;10.892;2022-07-29T01:13:16;19.80;92.70
66094;DHT22;52876;49.394;10.892;2022-07-29T01:15:55;19.70;93.20
66094;DHT22;52876;49.394;10.892;2022-07-29T01:18:28;19.70;93.00
66094;DHT22;52876;49.394;10.892;2022-07-29T01:21:18;19.70;93.30
66094;DHT22;52876;49.394;10.892;2022-07-29T01:23:56;19.60;94.00
66094;DHT22;52876;49.394;10.892;2022-07-29T01:26:41;19.60;94.50
66094;DHT22;52876;49.394;10.892;2022-07-29T01:29:15;19.60;95.30
66094;DHT22;52876;49.394;10.892;2022-07-29T01:31:48;19.40;95.10
66094;DHT22;52876;49.394;10.892;2022-07-29T01:34:35;19.50;95.00
66094;DHT22;52876;49.394;10.892;2022-07-29T01:37:11;19.40;95.30
66094;DHT22;52876;49.394;10.892;2022-07-29T01:39:42;19.60;95.50
66094;DHT22;52876;49.394;10.892;2022-07-29T01:42:15;19.40;95.70
66094;DHT22;52876;49.394;10.892;2022-07-29T01:44:53;19.50;96.30
66094;DHT22;52876;49.394;10.892;2022-07-29T01:47:23;19.50;96.70
66094;DHT22;52876;49.394;10.892;2022-07-29T01:49:53;19.30;97.20
66094;DHT22;52876;49.394;10.892;2022-07-29T01:52:23;19.20;97.50
66094;DHT22;52876;49.394;10.892;2022-07-29T01:54:53;19.10;97.80
66094;DHT22;52876;49.394;10.892;2022-07-29T01:57:27;19.10;98.50
66094;DHT22;52876;49.394;10.892;2022-07-29T01:59:58;19.10;98.50
66094;DHT22;52876;49.394;10.892;2022-07-29T02:02:39;19.00;98.40
66094;DHT22;52876;49.394;10.892;2022-07-29T02:05:08;19.00;98.30
66094;DHT22;52876;49.394;10.892;2022-07-29T02:07:40;19.00;98.50
66094;DHT22;52876;49.394;10.892;2022-07-29T02:10:09;19.00;98.50
66094;DHT22;52876;49.394;10.892;2022-07-29T02:12:48;19.00;99.00
66094;DHT22;52876;49.394;10.892;2022-07-29T02:15:24;18.40;98.90
66094;DHT22;52876;49.394;10.892;2022-07-29T02:17:56;18.10;99.90
66094;DHT22;52876;49.394;10.892;2022-07-29T02:20:26;18.50;99.90
66094;DHT22;52876;49.394;10.892;2022-07-29T02:22:54;17.90;99.90
66094;DHT22;52876;49.394;10.892;2022-07-29T02:25:26;18.60;99.90
66094;DHT22;52876;49.394;10.892;2022-07-29T02:27:56;18.60;99.90
66094;DHT22;52876;49.394;10.892;2022-07-29T02:30:25;18.60;99.90
66094;DHT22;52876;49.394;10.892;2022-07-29T02:32:53;18.60;99.90
66094;DHT22;52876;49.394;10.892;2022-07-29T02:37:57;18.60;99.90
66094;DHT22;52876;49.394;10.892;2022-07-29T02:40:25;18.80;99.90
66094;DHT22;52876;49.394;10.892;2022-07-29T02:42:55;18.70;99.90
66094;DHT22;52876;49.394;10.892;2022-07-29T02:45:31;18.50;99.90
66094;DHT22;52876;49.394;10.892;2022-07-29T02:48:06;18.40;99.90
66094;DHT22;52876;49.394;10.892;2022-07-29T02:50:45;19.10;99.90
66094;DHT22;52876;49.394;10.892;2022-07-29T02:53:15;18.70;99.90
66094;DHT22;52876;49.394;10.892;2022-07-29T02:55:48;18.30;99.90
66094;DHT22;52876;49.394;10.892;2022-07-29T02:58:23;18.20;99.90
66094;DHT22;52876;49.394;10.892;2022-07-29T03:00:55;18.20;99.90
66094;DHT22;52876;49.394;10.892;2022-07-29T03:03:25;18.30;99.90
66094;DHT22;52876;49.394;10.892;2022-07-29T03:05:53;19.90;99.90
66094;DHT22;52876;49.394;10.892;2022-07-29T03:10:51;18.20;99.90
66094;DHT22;52876;49.394;10.892;2022-07-29T03:15:47;18.00;99.90
66094;DHT22;52876;49.394;10.892;2022-07-29T03:18:15;17.90;99.90
66094;DHT22;52876;49.394;10.892;2022-07-29T03:23:20;17.90;99.90
66094;DHT22;52876;49.394;10.892;2022-07-29T03:33:24;17.80;99.90
66094;DHT22;52876;49.394;10.892;2022-07-29T03:38:24;17.70;99.90
66094;DHT22;52876;49.394;10.892;2022-07-29T03:40:57;17.80;99.90
66094;DHT22;52876;49.394;10.892;2022-07-29T03:43:31;17.60;99.90
66094;DHT22;52876;49.394;10.892;2022-07-29T03:46:00;17.70;99.90
66094;DHT22;52876;49.394;10.892;2022-07-29T03:48:33;17.70;99.90
66094;DHT22;52876;49.394;10.892;2022-07-29T03:55:59;17.80;99.90
66094;DHT22;52876;49.394;10.892;2022-07-29T03:58:27;17.50;99.90
66094;DHT22;52876;49.394;10.892;2022-07-29T04:00:54;17.60;99.90
66094;DHT22;52876;49.394;10.892;2022-07-29T04:03:21;17.70;99.90
66094;DHT22;52876;49.394;10.892;2022-07-29T04:06:02;17.70;99.90
66094;DHT22;52876;49.394;10.892;2022-07-29T04:21:13;17.70;99.90
66094;DHT22;52876;49.394;10.892;2022-07-29T04:26:05;18.10;99.90
66094;DHT22;52876;49.394;10.892;2022-07-29T04:35:54;18.00;99.90
66094;DHT22;52876;49.394;10.892;2022-07-29T04:38:22;18.00;99.90
66094;DHT22;52876;49.394;10.892;2022-07-29T04:48:11;18.00;99.90
66094;DHT22;52876;49.394;10.892;2022-07-29T04:50:39;18.00;99.90
66094;DHT22;52876;49.394;10.892;2022-07-29T04:53:05;18.00;99.90
66094;DHT22;52876;49.394;10.892;2022-07-29T04:55:34;18.40;99.90
66094;DHT22;52876;49.394;10.892;2022-07-29T05:12:46;19.70;99.90
66094;DHT22;52876;49.394;10.892;2022-07-29T05:15:12;20.80;99.90
66094;DHT22;52876;49.394;10.892;2022-07-29T05:17:40;21.40;99.90
66094;DHT22;52876;49.394;10.892;2022-07-29T05:20:07;22.00;99.90
66094;DHT22;52876;49.394;10.892;2022-07-29T05:25:02;23.00;96.90
66094;DHT22;52876;49.394;10.892;2022-07-29T05:27:34;23.60;96.30
66094;DHT22;52876;49.394;10.892;2022-07-29T05:30:02;23.80;93.60
66094;DHT22;52876;49.394;10.892;2022-07-29T05:42:52;25.60;86.80
66094;DHT22;52876;49.394;10.892;2022-07-29T05:45:20;25.50;86.20
66094;DHT22;52876;49.394;10.892;2022-07-29T05:50:13;26.20;84.00
66094;DHT22;52876;49.394;10.892;2022-07-29T05:55:08;27.00;81.30
66094;DHT22;52876;49.394;10.892;2022-07-29T05:57:35;27.50;78.00
66094;DHT22;52876;49.394;10.892;2022-07-29T06:00:02;27.50;77.50
66094;DHT22;52876;49.394;10.892;2022-07-29T06:02:33;28.10;74.50
66094;DHT22;52876;49.394;10.892;2022-07-29T06:07:27;28.50;72.10
66094;DHT22;52876;49.394;10.892;2022-07-29T06:09:53;24.70;70.60
66094;DHT22;52876;49.394;10.892;2022-07-29T06:12:19;28.30;75.20
66094;DHT22;52876;49.394;10.892;2022-07-29T06:14:44;29.10;73.20
66094;DHT22;52876;49.394;10.892;2022-07-29T06:17:10;28.80;72.10
66094;DHT22;52876;49.394;10.892;2022-07-29T06:19:38;29.20;71.20
66094;DHT22;52876;49.394;10.892;2022-07-29T06:22:05;28.60;70.80
66094;DHT22;52876;49.394;10.892;2022-07-29T06:24:31;28.60;72.30
66094;DHT22;52876;49.394;10.892;2022-07-29T06:26:57;29.00;70.50
66094;DHT22;52876;49.394;10.892;2022-07-29T06:29:23;28.90;71.00
66094;DHT22;52876;49.394;10.892;2022-07-29T06:31:51;29.70;70.70
66094;DHT22;52876;49.394;10.892;2022-07-29T06:36:44;28.30;72.50
66094;DHT22;52876;49.394;10.892;2022-07-29T06:41:38;29.00;73.10
66094;DHT22;52876;49.394;10.892;2022-07-29T06:44:04;30.10;70.10
66094;DHT22;52876;49.394;10.892;2022-07-29T06:48:58;30.80;67.20
66094;DHT22;52876;49.394;10.892;2022-07-29T06:51:24;28.80;68.20
66094;DHT22;52876;49.394;10.892;2022-07-29T06:53:51;27.80;71.50
66094;DHT22;52876;49.394;10.892;2022-07-29T06:56:19;27.80;79.40
66094;DHT22;52876;49.394;10.892;2022-07-29T06:58:45;29.30;71.70
66094;DHT22;52876;49.394;10.892;2022-07-29T07:01:11;30.30;68.60
66094;DHT22;52876;49.394;10.892;2022-07-29T07:03:37;30.70;66.90
66094;DHT22;52876;49.394;10.892;2022-07-29T07:08:31;30.20;68.20
66094;DHT22;52876;49.394;10.892;2022-07-29T07:11:00;30.60;66.30
66094;DHT22;52876;49.394;10.892;2022-07-29T07:13:26;30.50;68.20
66094;DHT22;52876;49.394;10.892;2022-07-29T07:18:19;27.90;71.70
66094;DHT22;52876;49.394;10.892;2022-07-29T07:28:05;26.50;80.10
66094;DHT22;52876;49.394;10.892;2022-07-29T07:32:58;29.30;74.20
66094;DHT22;52876;49.394;10.892;2022-07-29T07:37:52;31.50;64.70
66094;DHT22;52876;49.394;10.892;2022-07-29T07:40:19;30.80;65.10
66094;DHT22;52876;49.394;10.892;2022-07-29T07:42:47;29.90;66.00
66094;DHT22;52876;49.394;10.892;2022-07-29T07:45:14;29.70;68.10
66094;DHT22;52876;49.394;10.892;2022-07-29T07:50:11;28.30;72.00
66094;DHT22;52876;49.394;10.892;2022-07-29T07:52:46;27.10;74.90
66094;DHT22;52876;49.394;10.892;2022-07-29T08:00:07;29.10;72.40
66094;DHT22;52876;49.394;10.892;2022-07-29T08:02:37;30.00;66.20
66094;DHT22;52876;49.394;10.892;2022-07-29T08:05:03;27.90;70.30
66094;DHT22;52876;49.394;10.892;2022-07-29T08:17:21;28.60;64.90
66094;DHT22;52876;49.394;10.892;2022-07-29T08:19:49;28.70;65.40
66094;DHT22;52876;49.394;10.892;2022-07-29T08:27:10;31.70;60.50
66094;DHT22;52876;49.394;10.892;2022-07-29T08:29:37;30.00;58.40
66094;DHT22;52876;49.394;10.892;2022-07-29T08:32:05;32.00;59.90
66094;DHT22;52876;49.394;10.892;2022-07-29T08:34:32;33.80;55.80
66094;DHT22;52876;49.394;10.892;2022-07-29T08:37:00;35.00;53.00
66094;DHT22;52876;49.394;10.892;2022-07-29T08:41:53;30.60;56.00
66094;DHT22;52876;49.394;10.892;2022-07-29T08:51:41;29.30;59.60
66094;DHT22;52876;49.394;10.892;2022-07-29T08:54:09;27.90;60.70
66094;DHT22;52876;49.394;10.892;2022-07-29T08:56:37;28.10;62.00
66094;DHT22;52876;49.394;10.892;2022-07-29T08:59:05;29.00;62.30
66094;DHT22;52876;49.394;10.892;2022-07-29T09:01:33;30.30;59.20
66094;DHT22;52876;49.394;10.892;2022-07-29T09:04:04;31.40;57.50
66094;DHT22;52876;49.394;10.892;2022-07-29T09:06:34;31.00;57.50
66094;DHT22;52876;49.394;10.892;2022-07-29T09:09:03;31.10;58.40
66094;DHT22;52876;49.394;10.892;2022-07-29T09:11:34;33.40;55.40
66094;DHT22;52876;49.394;10.892;2022-07-29T09:14:01;30.70;55.50
66094;DHT22;52876;49.394;10.892;2022-07-29T09:16:53;30.80;56.40
66094;DHT22;52876;49.394;10.892;2022-07-29T09:19:20;30.10;58.30
66094;DHT22;52876;49.394;10.892;2022-07-29T09:21:47;31.10;58.60
66094;DHT22;52876;49.394;10.892;2022-07-29T09:24:14;30.60;57.40
66094;DHT22;52876;49.394;10.892;2022-07-29T09:26:45;31.20;57.20
66094;DHT22;52876;49.394;10.892;2022-07-29T09:29:14;30.70;58.30
66094;DHT22;52876;49.394;10.892;2022-07-29T09:31:43;29.30;59.30
66094;DHT22;52876;49.394;10.892;2022-07-29T09:34:11;29.30;60.30
66094;DHT22;52876;49.394;10.892;2022-07-29T09:36:40;29.40;60.50
66094;DHT22;52876;49.394;10.892;2022-07-29T09:41:46;30.40;62.10
66094;DHT22;52876;49.394;10.892;2022-07-29T09:46:47;28.80;60.50
66094;DHT22;52876;49.394;10.892;2022-07-29T09:51:45;28.70;62.90
66094;DHT22;52876;49.394;10.892;2022-07-29T09:54:24;29.00;62.80
66094;DHT22;52876;49.394;10.892;2022-07-29T09:56:54;28.40;64.10
66094;DHT22;52876;49.394;10.892;2022-07-29T09:59:21;23.70;59.10
66094;DHT22;52876;49.394;10.892;2022-07-29T10:01:48;27.80;65.40
66094;DHT22;52876;49.394;10.892;2022-07-29T10:04:15;28.60;63.80
66094;DHT22;52876;49.394;10.892;2022-07-29T10:06:56;29.30;64.80
66094;DHT22;52876;49.394;10.892;2022-07-29T10:09:23;28.50;63.90
66094;DHT22;52876;49.394;10.892;2022-07-29T10:12:08;28.00;65.90
66094;DHT22;52876;49.394;10.892;2022-07-29T10:14:35;28.10;65.30
66094;DHT22;52876;49.394;10.892;2022-07-29T10:17:04;28.60;63.70
66094;DHT22;52876;49.394;10.892;2022-07-29T10:19:31;28.90;63.70
66094;DHT22;52876;49.394;10.892;2022-07-29T10:21:58;29.40;62.80
66094;DHT22;52876;49.394;10.892;2022-07-29T10:24:26;29.50;63.90
66094;DHT22;52876;49.394;10.892;2022-07-29T10:26:54;29.80;61.80
66094;DHT22;52876;49.394;10.892;2022-07-29T10:29:23;29.50;62.10
66094;DHT22;52876;49.394;10.892;2022-07-29T10:32:07;29.50;61.80
66094;DHT22;52876;49.394;10.892;2022-07-29T10:34:48;30.50;59.60
66094;DHT22;52876;49.394;10.892;2022-07-29T10:37:24;30.10;60.70
66094;DHT22;52876;49.394;10.892;2022-07-29T10:40:00;28.50;62.50
66094;DHT22;52876;49.394;10.892;2022-07-29T10:42:32;29.90;61.50
66094;DHT22;52876;49.394;10.892;2022-07-29T10:45:07;29.30;61.00
66094;DHT22;52876;49.394;10.892;2022-07-29T10:50:03;28.20;63.60
66094;DHT22;52876;49.394;10.892;2022-07-29T10:52:53;28.60;64.80
66094;DHT22;52876;49.394;10.892;2022-07-29T10:55:33;28.40;64.20
66094;DHT22;52876;49.394;10.892;2022-07-29T10:58:11;29.70;61.50
66094;DHT22;52876;49.394;10.892;2022-07-29T11:00:40;30.40;60.10
66094;DHT22;52876;49.394;10.892;2022-07-29T11:03:06;30.50;60.90
66094;DHT22;52876;49.394;10.892;2022-07-29T11:05:54;28.10;57.60
66094;DHT22;52876;49.394;10.892;2022-07-29T11:08:24;29.60;62.20
66094;DHT22;52876;49.394;10.892;2022-07-29T11:14:00;32.50;56.70
66094;DHT22;52876;49.394;10.892;2022-07-29T11:16:58;31.50;55.10
66094;DHT22;52876;49.394;10.892;2022-07-29T11:19:24;31.90;56.20
66094;DHT22;52876;49.394;10.892;2022-07-29T11:21:52;30.60;58.10
66094;DHT22;52876;49.394;10.892;2022-07-29T11:24:20;30.70;58.70
66094;DHT22;52876;49.394;10.892;2022-07-29T11:27:10;30.80;55.70
66094;DHT22;52876;49.394;10.892;2022-07-29T11:29:39;32.70;54.10
66094;DHT22;52876;49.394;10.892;2022-07-29T11:32:11;32.10;54.70
66094;DHT22;52876;49.394;10.892;2022-07-29T11:34:37;32.10;54.80
66094;DHT22;52876;49.394;10.892;2022-07-29T11:37:22;32.90;55.20
66094;DHT22;52876;49.394;10.892;2022-07-29T11:40:16;31.40;55.20
66094;DHT22;52876;49.394;10.892;2022-07-29T11:42:47;31.60;54.40
66094;DHT22;52876;49.394;10.892;2022-07-29T11:45:16;32.00;55.60
66094;DHT22;52876;49.394;10.892;2022-07-29T11:47:51;30.90;54.70
66094;DHT22;52876;49.394;10.892;2022-07-29T11:50:26;30.40;56.70
66094;DHT22;52876;49.394;10.892;2022-07-29T11:52:52;30.40;56.40
66094;DHT22;52876;49.394;10.892;2022-07-29T11:55:19;31.90;55.50
66094;DHT22;52876;49.394;10.892;2022-07-29T11:57:48;31.70;54.00
66094;DHT22;52876;49.394;10.892;2022-07-29T12:00:26;32.90;53.50
66094;DHT22;52876;49.394;10.892;2022-07-29T12:02:55;31.80;52.80
66094;DHT22;52876;49.394;10.892;2022-07-29T12:05:31;32.50;53.90
66094;DHT22;52876;49.394;10.892;2022-07-29T12:08:04;33.60;52.00
66094;DHT22;52876;49.394;10.892;2022-07-29T12:10:32;33.30;50.10
66094;DHT22;52876;49.394;10.892;2022-07-29T12:12:58;33.00;51.20
66094;DHT22;52876;49.394;10.892;2022-07-29T12:15:26;32.70;50.40
66094;DHT22;52876;49.394;10.892;2022-07-29T12:17:53;32.90;50.10
66094;DHT22;52876;49.394;10.892;2022-07-29T12:20:24;33.70;49.50
66094;DHT22;52876;49.394;10.892;2022-07-29T12:25:17;33.70;47.80
66094;DHT22;52876;49.394;10.892;2022-07-29T12:27:44;32.60;48.70
66094;DHT22;52876;49.394;10.892;2022-07-29T12:30:12;31.30;49.60
66094;DHT22;52876;49.394;10.892;2022-07-29T12:32:41;27.60;49.20
66094;DHT22;52876;49.394;10.892;2022-07-29T12:35:10;30.80;51.40
66094;DHT22;52876;49.394;10.892;2022-07-29T12:37:39;29.70;52.70
66094;DHT22;52876;49.394;10.892;2022-07-29T12:40:07;30.40;51.90
66094;DHT22;52876;49.394;10.892;2022-07-29T12:42:35;30.60;51.20
66094;DHT22;52876;49.394;10.892;2022-07-29T12:45:01;31.00;52.00
66094;DHT22;52876;49.394;10.892;2022-07-29T12:47:29;29.90;53.40
66094;DHT22;52876;49.394;10.892;2022-07-29T12:50:10;31.30;55.50
66094;DHT22;52876;49.394;10.892;2022-07-29T12:52:37;29.70;54.40
66094;DHT22;52876;49.394;10.892;2022-07-29T12:55:04;29.70;54.60
66094;DHT22;52876;49.394;10.892;2022-07-29T13:00:04;28.50;58.10
66094;DHT22;52876;49.394;10.892;2022-07-29T13:02:32;28.60;59.00
66094;DHT22;52876;49.394;10.892;2022-07-29T13:04:59;29.00;59.10
66094;DHT22;52876;49.394;10.892;2022-07-29T13:07:31;28.10;59.50
66094;DHT22;52876;49.394;10.892;2022-07-29T13:10:10;28.50;60.60
66094;DHT22;52876;49.394;10.892;2022-07-29T13:12:38;30.00;60.60
66094;DHT22;52876;49.394;10.892;2022-07-29T13:15:13;29.10;59.90
66094;DHT22;52876;49.394;10.892;2022-07-29T13:17:42;29.40;62.90
66094;DHT22;52876;49.394;10.892;2022-07-29T13:20:10;28.50;61.00
66094;DHT22;52876;49.394;10.892;2022-07-29T13:22:40;27.90;63.90
66094;DHT22;52876;49.394;10.892;2022-07-29T13:25:07;27.40;64.10
66094;DHT22;52876;49.394;10.892;2022-07-29T13:27:36;27.10;65.40
66094;DHT22;52876;49.394;10.892;2022-07-29T13:30:04;25.90;70.10
66094;DHT22;52876;49.394;10.892;2022-07-29T13:32:32;25.30;74.40
66094;DHT22;52876;49.394;10.892;2022-07-29T13:35:01;24.50;78.80
66094;DHT22;52876;49.394;10.892;2022-07-29T13:37:29;24.50;82.80
66094;DHT22;52876;49.394;10.892;2022-07-29T13:39:56;24.30;85.40
66094;DHT22;52876;49.394;10.892;2022-07-29T13:42:23;23.90;86.40
66094;DHT22;52876;49.394;10.892;2022-07-29T13:44:49;23.60;84.60
66094;DHT22;52876;49.394;10.892;2022-07-29T13:57:03;23.70;81.30
66094;DHT22;52876;49.394;10.892;2022-07-29T13:59:29;23.90;79.50
66094;DHT22;52876;49.394;10.892;2022-07-29T14:01:55;24.00;79.60
66094;DHT22;52876;49.394;10.892;2022-07-29T14:04:21;24.20;78.80
66094;DHT22;52876;49.394;10.892;2022-07-29T14:09:14;24.30;78.70
66094;DHT22;52876;49.394;10.892;2022-07-29T14:11:41;24.50;80.70
66094;DHT22;52876;49.394;10.892;2022-07-29T14:14:08;24.60;79.20
66094;DHT22;52876;49.394;10.892;2022-07-29T14:16:37;24.10;82.30
66094;DHT22;52876;49.394;10.892;2022-07-29T14:19:03;24.10;82.80
66094;DHT22;52876;49.394;10.892;2022-07-29T14:23:56;23.60;91.40
66094;DHT22;52876;49.394;10.892;2022-07-29T14:31:20;23.50;96.80
66094;DHT22;52876;49.394;10.892;2022-07-29T14:38:43;23.40;95.40
66094;DHT22;52876;49.394;10.892;2022-07-29T14:48:31;23.20;99.90
66094;DHT22;52876;49.394;10.892;2022-07-29T15:00:42;22.60;99.90
66094;DHT22;52876;49.394;10.892;2022-07-29T15:03:08;22.70;99.90
66094;DHT22;52876;49.394;10.892;2022-07-29T15:05:37;22.50;99.90
66094;DHT22;52876;49.394;10.892;2022-07-29T15:08:03;22.60;99.90
66094;DHT22;52876;49.394;10.892;2022-07-29T15:10:30;22.70;99.90
66094;DHT22;52876;49.394;10.892;2022-07-29T15:12:56;22.70;99.90
66094;DHT22;52876;49.394;10.892;2022-07-29T15:15:24;22.60;99.90
66094;DHT22;52876;49.394;10.892;2022-07-29T15:22:47;21.90;99.90
66094;DHT22;52876;49.394;10.892;2022-07-29T15:25:13;21.90;99.90
66094;DHT22;52876;49.394;10.892;2022-07-29T15:30:08;21.40;99.90
66094;DHT22;52876;49.394;10.892;2022-07-29T15:35:02;21.30;99.90
66094;DHT22;52876;49.394;10.892;2022-07-29T15:39:57;20.80;99.90
66094;DHT22;52876;49.394;10.892;2022-07-29T15:54:39;20.00;99.90
66094;DHT22;52876;49.394;10.892;2022-07-29T15:57:07;19.80;99.90
66094;DHT22;52876;49.394;10.892;2022-07-29T16:06:53;19.40;99.90
66094;DHT22;52876;49.394;10.892;2022-07-29T16:11:45;18.70;99.90
66094;DHT22;52876;49.394;10.892;2022-07-29T16:14:13;18.60;99.90
66094;DHT22;52876;49.394;10.892;2022-07-29T16:31:21;18.50;99.90
66094;DHT22;52876;49.394;10.892;2022-07-29T16:48:30;18.90;99.90
66094;DHT22;52876;49.394;10.892;2022-07-29T17:00:44;18.50;99.90
66094;DHT22;52876;49.394;10.892;2022-07-29T17:05:40;18.70;99.90
66094;DHT22;52876;49.394;10.892;2022-07-29T17:22:50;18.60;99.90
66094;DHT22;52876;49.394;10.892;2022-07-29T17:35:05;18.80;99.90
66094;DHT22;52876;49.394;10.892;2022-07-29T17:40:00;18.60;99.90
66094;DHT22;52876;49.394;10.892;2022-07-29T17:57:12;18.60;99.90
66094;DHT22;52876;49.394;10.892;2022-07-29T18:06:59;18.80;99.90
66094;DHT22;52876;49.394;10.892;2022-07-29T18:14:19;18.50;99.90
66094;DHT22;52876;49.394;10.892;2022-07-29T18:31:29;18.50;99.90
66094;DHT22;52876;49.394;10.892;2022-07-29T18:48:36;18.30;99.90
66094;DHT22;52876;49.394;10.892;2022-07-29T18:55:57;18.50;99.90
66094;DHT22;52876;49.394;10.892;2022-07-29T19:05:43;18.20;99.90
66094;DHT22;52876;49.394;10.892;2022-07-29T19:10:35;18.10;99.90
66094;DHT22;52876;49.394;10.892;2022-07-29T19:13:01;17.70;99.90
66094;DHT22;52876;49.394;10.892;2022-07-29T19:22:49;17.80;99.90
66094;DHT22;52876;49.394;10.892;2022-07-29T19:30:09;17.90;99.90
66094;DHT22;52876;49.394;10.892;2022-07-29T19:32:37;17.80;99.90
66094;DHT22;52876;49.394;10.892;2022-07-29T19:35:04;17.70;99.90
66094;DHT22;52876;49.394;10.892;2022-07-29T19:39:59;17.60;99.90
66094;DHT22;52876;49.394;10.892;2022-07-29T19:57:08;17.50;99.90
66094;DHT22;52876;49.394;10.892;2022-07-29T20:14:15;17.40;99.90
66094;DHT22;52876;49.394;10.892;2022-07-29T20:16:41;17.80;99.90
66094;DHT22;52876;49.394;10.892;2022-07-29T20:26:29;17.50;99.90
66094;DHT22;52876;49.394;10.892;2022-07-29T20:31:24;17.50;99.90
66094;DHT22;52876;49.394;10.892;2022-07-29T20:41:09;17.50;99.90
66094;DHT22;52876;49.394;10.892;2022-07-29T20:48:29;17.40;99.90
66094;DHT22;52876;49.394;10.892;2022-07-29T21:05:39;17.60;99.90
66094;DHT22;52876;49.394;10.892;2022-07-29T21:22:49;17.50;99.90
66094;DHT22;52876;49.394;10.892;2022-07-29T21:30:09;17.50;99.90
66094;DHT22;52876;49.394;10.892;2022-07-29T21:39:59;17.50;99.90
66094;DHT22;52876;49.394;10.892;2022-07-29T21:57:06;17.10;99.90
66094;DHT22;52876;49.394;10.892;2022-07-29T22:06:57;17.40;99.90
66094;DHT22;52876;49.394;10.892;2022-07-29T22:14:17;17.30;99.90
66094;DHT22;52876;49.394;10.892;2022-07-29T22:16:43;17.10;99.90
66094;DHT22;52876;49.394;10.892;2022-07-29T22:24:04;17.30;99.90
66094;DHT22;52876;49.394;10.892;2022-07-29T22:26:31;17.00;99.90
66094;DHT22;52876;49.394;10.892;2022-07-29T22:31:26;17.10;99.90
66094;DHT22;52876;49.394;10.892;2022-07-29T22:46:07;17.00;99.90
66094;DHT22;52876;49.394;10.892;2022-07-29T22:48:34;16.90;99.90
66094;DHT22;52876;49.394;10.892;2022-07-29T23:05:41;16.40;99.90
66094;DHT22;52876;49.394;10.892;2022-07-29T23:22:49;16.30;99.90
66094;DHT22;52876;49.394;10.892;2022-07-29T23:35:05;16.00;99.90
66094;DHT22;52876;49.394;10.892;2022-07-29T23:40:01;16.00;99.90
66094;DHT22;52876;49.394;10.892;2022-07-29T23:57:11;15.70;99.90
